Milton, Louisiana
Current Conditions -  °F | °C
As of 3:10 PM on Friday 24 Oct 2014 (Local Time) from KIYA Reporting Station
Clear Clear  
Wind Chill: 76°   Ceiling: Unl
Heat Index: 76°   Visibility: 10mi
Dew Point: 47°   Wind: 6mph
Humidity: 37%   Direction: 330°NNW
Pressure: 30.07"   Gusts: NA
Location:  30.1°N, 92.08°W
Report Text: KIYA 242010Z AUTO 33005KT 10SM CLR 24/09 A3007 RMK AO2 T02420085
Loading
Personal Weather Stations






























Interactive Weather Map
Tropical Storm Tracking
New forecast layout! Learn more

10-Day Weather Forecast

Advertisements
Track Severe Weather on mobile